Home > Products > Valid Products > TAF

000
FTUS42 KGSP 012300
TAFCLT
TAF
KCLT 012320Z 0200/0224 22003KT P6SM FEW060 SCT200
     FM021500 23007KT P6SM SCT060
     FM022000 22007KT P6SM BKN060 PROB30 0221/0224 TSRA BKN040CB=



000
FTUS42 KGSP 012300
TAFAVL
TAF
KAVL 012320Z 0200/0224 20003KT P6SM FEW050 SCT200
     FM020600 00000KT 5SM BR FEW010 SCT150
     FM020800 00000KT 1SM BR BKN008
     FM021000 00000KT 1/2SM FG BKN002
     FM021300 30004KT P6SM SCT010
     FM021600 31005KT P6SM BKN050 PROB30 0220/0224 4SM TSRA
      BKN035CB=



000
FTUS42 KGSP 012300
TAFCLT
TAF
KCLT 012320Z 0200/0224 22003KT P6SM FEW060 SCT200
     FM021500 23007KT P6SM SCT060
     FM022000 22007KT P6SM BKN060 PROB30 0221/0224 TSRA BKN040CB=



000
FTUS42 KGSP 012300
TAFAVL
TAF
KAVL 012320Z 0200/0224 20003KT P6SM FEW050 SCT200
     FM020600 00000KT 5SM BR FEW010 SCT150
     FM020800 00000KT 1SM BR BKN008
     FM021000 00000KT 1/2SM FG BKN002
     FM021300 30004KT P6SM SCT010
     FM021600 31005KT P6SM BKN050 PROB30 0220/0224 4SM TSRA
      BKN035CB=



000
FTUS42 KGSP 012300
TAFGSP
TAF
KGSP 012320Z 0200/0224 21003KT P6SM FEW060 SCT200
     FM021500 23006KT P6SM SCT060
     FM022100 23007KT P6SM SCT050 PROB30 0221/0224 TSRA BKN040CB=



000
FTUS42 KGSP 012200 AAC
TAFAVL
TAF AMD
KAVL 012209Z 0122/0218 19005KT P6SM VCSH SCT050 BKN200
     FM020000 00000KT P6SM SCT060
     FM020900 00000KT 2SM BR BKN004
     FM021200 00000KT 1SM BR BKN003
     FM021400 31004KT 5SM BR SCT110
     FM021500 32004KT P6SM FEW045=



000
FTUS42 KGSP 012200 AAC
TAFAVL
TAF AMD
KAVL 012209Z 0122/0218 19005KT P6SM VCSH SCT050 BKN200
     FM020000 00000KT P6SM SCT060
     FM020900 00000KT 2SM BR BKN004
     FM021200 00000KT 1SM BR BKN003
     FM021400 31004KT 5SM BR SCT110
     FM021500 32004KT P6SM FEW045=



000
FTUS42 KGSP 012000 AAA
TAFCLT
TAF AMD
KCLT 012056Z 0121/0218 26006KT P6SM VCSH SCT050 BKN200
     FM020100 21003KT P6SM SCT080 BKN200
     FM021300 24006KT P6SM FEW060 BKN120=



000
FTUS42 KGSP 012000 AAA
TAFCLT
TAF AMD
KCLT 012056Z 0121/0218 26006KT P6SM VCSH SCT050 BKN200
     FM020100 21003KT P6SM SCT080 BKN200
     FM021300 24006KT P6SM FEW060 BKN120=



000
FTUS42 KGSP 012000 AAB
TAFAVL
TAF AMD
KAVL 012001Z 0120/0218 19006KT P6SM VCTS BKN050CB
     FM020000 00000KT P6SM SCT060
     FM020900 00000KT 2SM BR BKN004
     FM021200 00000KT 1SM BR BKN003
     FM021400 31004KT 5SM BR SCT110
     FM021500 32004KT P6SM FEW045=



000
FTUS42 KGSP 012000 AAB
TAFAVL
TAF AMD
KAVL 012001Z 0120/0218 19006KT P6SM VCTS BKN050CB
     FM020000 00000KT P6SM SCT060
     FM020900 00000KT 2SM BR BKN004
     FM021200 00000KT 1SM BR BKN003
     FM021400 31004KT 5SM BR SCT110
     FM021500 32004KT P6SM FEW045=



000
FTUS42 KGSP 011900 AAA
TAFAVL
TAF AMD
KAVL 011935Z 0120/0218 19006KT P6SM VCSH SCT050
      TEMPO 0120/0122 VRB15G25KT 3SM TSRA OVC040CB
     FM020000 00000KT P6SM SCT060
     FM020900 00000KT 2SM BR BKN004
     FM021200 00000KT 1SM BR BKN003
     FM021400 31004KT 5SM BR SCT110
     FM021500 32004KT P6SM FEW045=



000
FTUS42 KGSP 011900 AAA
TAFAVL
TAF AMD
KAVL 011935Z 0120/0218 19006KT P6SM VCSH SCT050
      TEMPO 0120/0122 VRB15G25KT 3SM TSRA OVC040CB
     FM020000 00000KT P6SM SCT060
     FM020900 00000KT 2SM BR BKN004
     FM021200 00000KT 1SM BR BKN003
     FM021400 31004KT 5SM BR SCT110
     FM021500 32004KT P6SM FEW045=



000
FTUS42 KGSP 011700
TAFGSP
TAF
KGSP 011736Z 0118/0218 23005KT P6SM FEW045 BKN250
     FM020100 23003KT P6SM FEW050 SCT130
     FM021300 24006KT P6SM FEW050 BKN120=



000
FTUS42 KGSP 011700
TAFAVL
TAF
KAVL 011736Z 0118/0218 18004KT P6SM SCT050
     FM012000 21004KT P6SM VCTS BKN050CB
     FM020000 00000KT P6SM SCT060
     FM020900 00000KT 2SM BR BKN004
     FM021200 00000KT 1SM BR BKN003
     FM021400 31004KT 5SM BR SCT110
     FM021500 32004KT P6SM FEW045=



000
FTUS42 KGSP 011700
TAFCLT
TAF
KCLT 011736Z 0118/0218 26005KT P6SM BKN250
     FM020100 21003KT P6SM SCT080 BKN200
     FM021300 24006KT P6SM FEW060 BKN120=



000
FTUS42 KGSP 011700
TAFAVL
TAF
KAVL 011736Z 0118/0218 18004KT P6SM SCT050
     FM012000 21004KT P6SM VCTS BKN050CB
     FM020000 00000KT P6SM SCT060
     FM020900 00000KT 2SM BR BKN004
     FM021200 00000KT 1SM BR BKN003
     FM021400 31004KT 5SM BR SCT110
     FM021500 32004KT P6SM FEW045=



000
FTUS42 KGSP 011700
TAFCLT
TAF
KCLT 011736Z 0118/0218 26005KT P6SM BKN250
     FM020100 21003KT P6SM SCT080 BKN200
     FM021300 24006KT P6SM FEW060 BKN120=



000
FTUS42 KGSP 011600 AAA
TAFCLT
TAF AMD
KCLT 011612Z 0116/0212 25005KT P6SM FEW060 BKN250
     FM012100 23005KT P6SM BKN060
     FM020200 19003KT P6SM SCT060=



000
FTUS42 KGSP 011600 AAA
TAFCLT
TAF AMD
KCLT 011612Z 0116/0212 25005KT P6SM FEW060 BKN250
     FM012100 23005KT P6SM BKN060
     FM020200 19003KT P6SM SCT060=



000
FTUS42 KGSP 011300 AAA
TAFAVL
TAF AMD
KAVL 011311Z 0113/0212 00000KT 2SM BR VCSH BKN002
      TEMPO 0113/0114 3SM BR SCT002 BKN035
     FM011400 33004KT P6SM BKN035
     FM012100 19005KT P6SM BKN060
     FM020000 00000KT P6SM SCT060
     FM020700 00000KT 5SM BR SCT050
     FM020900 00000KT 1SM BR BKN002=



000
FTUS42 KGSP 011100
TAFAVL
TAF
KAVL 011135Z 0112/0212 00000KT 1SM BR VCSH OVC002
      TEMPO 0112/0113 1/4SM FG VV001
     FM011400 33004KT P6SM BKN035
     FM012100 19005KT P6SM BKN060
     FM020000 00000KT P6SM SCT060
     FM020700 00000KT 5SM BR SCT050
     FM020900 00000KT 1SM BR BKN002=



000
FTUS42 KGSP 011100
TAFAVL
TAF
KAVL 011135Z 0112/0212 00000KT 1SM BR VCSH OVC002
      TEMPO 0112/0113 1/4SM FG VV001
     FM011400 33004KT P6SM BKN035
     FM012100 19005KT P6SM BKN060
     FM020000 00000KT P6SM SCT060
     FM020700 00000KT 5SM BR SCT050
     FM020900 00000KT 1SM BR BKN002=



000
FTUS42 KGSP 011100
TAFGSP
TAF
KGSP 011135Z 0112/0212 24003KT P6SM BKN250
     FM011600 24006KT P6SM SCT060
     FM012100 21003KT P6SM BKN060
     FM020100 22003KT P6SM SCT060=



000
FTUS42 KGSP 011100
TAFCLT
TAF
KCLT 011135Z 0112/0212 24004KT P6SM BKN250
     FM011600 25005KT P6SM SCT060
     FM012100 23005KT P6SM BKN060
     FM020200 19003KT P6SM SCT060=



000
FTUS42 KGSP 011100
TAFCLT
TAF
KCLT 011135Z 0112/0212 24004KT P6SM BKN250
     FM011600 25005KT P6SM SCT060
     FM012100 23005KT P6SM BKN060
     FM020200 19003KT P6SM SCT060=



000
FTUS42 KGSP 011000 AAA
TAFGSP
TAF AMD
KGSP 011033Z 0111/0206 22003KT P6SM BKN250
      TEMPO 0111/0113 5SM BR
     FM011300 24003KT P6SM SCT250
     FM011600 24006KT P6SM SCT060
     FM012100 21003KT P6SM BKN060
     FM020100 22003KT P6SM SCT060=



000
FTUS42 KGSP 010900 AAA
TAFAVL
TAF AMD
KAVL 010923Z 0109/0206 00000KT 1SM BR OVC002
      TEMPO 0109/0113 1/4SM FG VV001
     FM011400 33004KT P6SM BKN035
     FM012100 19005KT P6SM BKN060
     FM020000 00000KT P6SM SCT060=



000
FTUS42 KGSP 010900 AAA
TAFAVL
TAF AMD
KAVL 010923Z 0109/0206 00000KT 1SM BR OVC002
      TEMPO 0109/0113 1/4SM FG VV001
     FM011400 33004KT P6SM BKN035
     FM012100 19005KT P6SM BKN060
     FM020000 00000KT P6SM SCT060=



000
FTUS42 KGSP 010800 AAA
TAFCLT
TAF AMD
KCLT 010858Z 0109/0206 21004KT P6SM BKN250
      TEMPO 0111/0113 5SM BR
     FM011300 24004KT P6SM SCT250
     FM011600 25005KT P6SM SCT060
     FM012100 23005KT P6SM BKN060
     FM020200 19004KT P6SM SCT060=



000
FTUS42 KGSP 010800 AAA
TAFCLT
TAF AMD
KCLT 010858Z 0109/0206 21004KT P6SM BKN250
      TEMPO 0111/0113 5SM BR
     FM011300 24004KT P6SM SCT250
     FM011600 25005KT P6SM SCT060
     FM012100 23005KT P6SM BKN060
     FM020200 19004KT P6SM SCT060=



000
FTUS42 KGSP 010500
TAFCLT
TAF
KCLT 010535Z 0106/0206 19003KT P6SM BKN250
     FM011000 22003KT 4SM BR SCT250
     FM011300 24004KT P6SM SCT250
     FM011600 25005KT P6SM SCT060
     FM012100 23005KT P6SM BKN060
     FM020200 19004KT P6SM SCT060=



000
FTUS42 KGSP 010500
TAFAVL
TAF
KAVL 010535Z 0106/0206 00000KT P6SM SCT002
      TEMPO 0106/0109 3SM BR BKN002
     FM010900 00000KT 1SM BR OVC002
     FM011400 33004KT P6SM BKN035
     FM012100 19005KT P6SM BKN060
     FM020000 00000KT P6SM SCT060=



000
FTUS42 KGSP 010500
TAFGSP
TAF
KGSP 010535Z 0106/0206 22003KT P6SM BKN250
     FM011000 00000KT 5SM BR SCT250
     FM011300 24003KT P6SM SCT250
     FM011600 24006KT P6SM SCT060
     FM012100 21003KT P6SM BKN060
     FM020100 22003KT P6SM SCT060=



000
FTUS42 KGSP 010200 AAA
TAFAVL
TAF AMD
KAVL 010240Z 0103/0124 VRB03KT P6SM VCSH SCT050 BKN250
     FM010500 00000KT 4SM BR FEW008 SCT050
     FM010800 00000KT 1SM BR BKN008
     FM011400 30005KT P6SM BKN035
     FM012000 19005KT P6SM BKN050=



000
FTUS42 KGSP 010200 AAA
TAFAVL
TAF AMD
KAVL 010240Z 0103/0124 VRB03KT P6SM VCSH SCT050 BKN250
     FM010500 00000KT 4SM BR FEW008 SCT050
     FM010800 00000KT 1SM BR BKN008
     FM011400 30005KT P6SM BKN035
     FM012000 19005KT P6SM BKN050=



000
FTUS42 KGSP 312300
TAFCLT
TAF
KCLT 312339Z 0100/0124 20004KT P6SM FEW050 SCT250
     FM010900 19003KT 5SM BR FEW060 SCT250
     FM011400 25005KT P6SM SCT050
     FM012100 24006KT P6SM BKN060=



000
FTUS42 KGSP 312300
TAFAVL
TAF
KAVL 312339Z 0100/0124 VRB03KT P6SM VCSH SCT050 BKN250
     FM010500 00000KT 4SM BR SCT050
     FM010800 00000KT 1SM BR SCT008
     FM011400 30005KT P6SM BKN040
     FM012000 19005KT P6SM BKN050=



000
FTUS42 KGSP 312300
TAFGSP
TAF
KGSP 312339Z 0100/0124 25004KT P6SM SCT250
     FM011000 00000KT 5SM BR FEW060
     FM011400 25006KT P6SM SCT060=



000
FTUS42 KGSP 312300
TAFAVL
TAF
KAVL 312339Z 0100/0124 VRB03KT P6SM VCSH SCT050 BKN250
     FM010500 00000KT 4SM BR SCT050
     FM010800 00000KT 1SM BR SCT008
     FM011400 30005KT P6SM BKN040
     FM012000 19005KT P6SM BKN050=



000
FTUS42 KGSP 312300
TAFCLT
TAF
KCLT 312339Z 0100/0124 20004KT P6SM FEW050 SCT250
     FM010900 19003KT 5SM BR FEW060 SCT250
     FM011400 25005KT P6SM SCT050
     FM012100 24006KT P6SM BKN060=



000
FTUS42 KGSP 312000 AAA
TAFCLT
TAF AMD
KCLT 312055Z 3121/0118 24005KT P6SM SCT040 BKN250
     FM010000 19004KT P6SM FEW060 SCT250
      TEMPO 0109/0112 5SM BR
     FM011300 24006KT P6SM SCT070=



000
FTUS42 KGSP 312000 AAA
TAFCLT
TAF AMD
KCLT 312055Z 3121/0118 24005KT P6SM SCT040 BKN250
     FM010000 19004KT P6SM FEW060 SCT250
      TEMPO 0109/0112 5SM BR
     FM011300 24006KT P6SM SCT070=



000
FTUS42 KGSP 311700
TAFAVL
TAF
KAVL 311738Z 3118/0118 VRB05KT P6SM FEW030
     FM312000 19007KT P6SM VCTS BKN045CB
     FM010000 00000KT P6SM SCT060
     FM010900 00000KT 2SM BR SCT008
     FM011300 VRB04KT P6SM SCT080=



000
FTUS42 KGSP 311700
TAFCLT
TAF
KCLT 311738Z 3118/0118 20006KT P6SM SCT040 BKN250
     FM010000 19004KT P6SM FEW060 BKN250
      TEMPO 0109/0112 5SM BR
     FM011300 24006KT P6SM SCT070=



000
FTUS42 KGSP 311700
TAFGSP
TAF
KGSP 311738Z 3118/0118 21008KT P6SM FEW035
     FM010100 22004KT P6SM FEW060 SCT180
      TEMPO 0110/0112 00000KT 5SM BR
     FM011300 23006KT P6SM SCT110=



000
FTUS42 KGSP 311700
TAFAVL
TAF
KAVL 311738Z 3118/0118 VRB05KT P6SM FEW030
     FM312000 19007KT P6SM VCTS BKN045CB
     FM010000 00000KT P6SM SCT060
     FM010900 00000KT 2SM BR SCT008
     FM011300 VRB04KT P6SM SCT080=



000
FTUS42 KGSP 311700
TAFCLT
TAF
KCLT 311738Z 3118/0118 20006KT P6SM SCT040 BKN250
     FM010000 19004KT P6SM FEW060 BKN250
      TEMPO 0109/0112 5SM BR
     FM011300 24006KT P6SM SCT070=



000
FTUS42 KGSP 311500 AAC
TAFAVL
TAF AMD
KAVL 311508Z 3115/0112 00000KT P6SM BKN012
      TEMPO 3115/3116 FEW012 SCT025
     FM311600 18006KT P6SM FEW035 BKN140
     FM311900 19007KT P6SM BKN250
      TEMPO 3121/0101 4SM TSRA BKN040CB
     FM010300 00000KT P6SM BKN250
     FM010700 00000KT 5SM BR SCT220=



000
FTUS42 KGSP 311500 AAC
TAFAVL
TAF AMD
KAVL 311508Z 3115/0112 00000KT P6SM BKN012
      TEMPO 3115/3116 FEW012 SCT025
     FM311600 18006KT P6SM FEW035 BKN140
     FM311900 19007KT P6SM BKN250
      TEMPO 3121/0101 4SM TSRA BKN040CB
     FM010300 00000KT P6SM BKN250
     FM010700 00000KT 5SM BR SCT220=



000
FTUS42 KGSP 311400 AAA
TAFCLT
TAF AMD
KCLT 311453Z 3115/0112 24005KT P6SM FEW013 FEW030 BKN120
      TEMPO 3115/3116 BKN013 BKN030
     FM311700 22007KT P6SM BKN120
     FM010300 00000KT P6SM BKN250=



000
FTUS42 KGSP 311400 AAA
TAFCLT
TAF AMD
KCLT 311453Z 3115/0112 24005KT P6SM FEW013 FEW030 BKN120
      TEMPO 3115/3116 BKN013 BKN030
     FM311700 22007KT P6SM BKN120
     FM010300 00000KT P6SM BKN250=



000
FTUS42 KGSP 311400 AAA
TAFGSP
TAF AMD
KGSP 311418Z 3114/0112 23004KT P6SM BKN007 OVC090
      TEMPO 3114/3116 SCT007 BKN012
     FM311600 20008KT P6SM BKN120
     FM010200 00000KT P6SM BKN250=



000
FTUS42 KGSP 311300 AAB
TAFAVL
TAF AMD
KAVL 311359Z 3114/0112 00000KT 3SM BR OVC006
      TEMPO 3115/3116 6SM BR FEW006
     FM311600 18006KT P6SM BKN140
     FM312100 19007KT P6SM BKN250
      TEMPO 3121/0101 4SM TSRA BKN040CB
     FM010300 00000KT P6SM BKN250
     FM010700 00000KT 5SM BR SCT220=



000
FTUS42 KGSP 311300 AAB
TAFAVL
TAF AMD
KAVL 311359Z 3114/0112 00000KT 3SM BR OVC006
      TEMPO 3115/3116 6SM BR FEW006
     FM311600 18006KT P6SM BKN140
     FM312100 19007KT P6SM BKN250
      TEMPO 3121/0101 4SM TSRA BKN040CB
     FM010300 00000KT P6SM BKN250
     FM010700 00000KT 5SM BR SCT220=



000
FTUS42 KGSP 311200 AAA
TAFAVL
TAF AMD
KAVL 311258Z 3113/0112 00000KT 3SM BR BKN008
      TEMPO 3113/3114 SCT008 BKN024
     FM311400 00000KT P6SM BKN090
     FM311700 18006KT P6SM BKN140
     FM312100 19007KT P6SM BKN250
      TEMPO 3121/0101 4SM TSRA BKN040CB
     FM010300 00000KT P6SM BKN250
     FM010700 00000KT 5SM BR SCT220=



000
FTUS42 KGSP 311200 AAA
TAFAVL
TAF AMD
KAVL 311258Z 3113/0112 00000KT 3SM BR BKN008
      TEMPO 3113/3114 SCT008 BKN024
     FM311400 00000KT P6SM BKN090
     FM311700 18006KT P6SM BKN140
     FM312100 19007KT P6SM BKN250
      TEMPO 3121/0101 4SM TSRA BKN040CB
     FM010300 00000KT P6SM BKN250
     FM010700 00000KT 5SM BR SCT220=



000
FTUS42 KGSP 311100
TAFGSP
TAF
KGSP 311137Z 3112/0112 22003KT P6SM SCT040 SCT090
     FM311400 21004KT P6SM BKN090
     FM311800 20008KT P6SM BKN120
     FM010200 00000KT P6SM BKN250=



000
FTUS42 KGSP 311100
TAFCLT
TAF
KCLT 311137Z 3112/0112 20004KT P6SM BKN060
      TEMPO 3112/3113 6SM -SHRA BR SCT015 OVC040
     FM311500 21005KT P6SM BKN080
     FM312100 20007KT P6SM BKN120
     FM010300 00000KT P6SM BKN250=



000
FTUS42 KGSP 311100
TAFAVL
TAF
KAVL 311137Z 3112/0112 00000KT P6SM BKN008
      TEMPO 3112/3113 SCT008 BKN024
     FM311300 00000KT P6SM BKN090
     FM311700 18006KT P6SM BKN140
     FM312100 19007KT P6SM BKN250 PROB30 3121/0102 4SM TSRA BKN040CB
     FM010300 00000KT P6SM BKN250
     FM010700 00000KT 5SM BR SCT220=



000
FTUS42 KGSP 311000 AAB
TAFAVL
TAF AMD
KAVL 311044Z 3111/0106 00000KT P6SM BKN007 OVC100
     FM311400 17003KT P6SM BKN090
     FM311800 19007KT P6SM BKN045 PROB30 3120/0102 4SM TSRA BKN040CB
     FM010200 00000KT P6SM BKN060=



000
FTUS42 KGSP 311000 AAB
TAFGSP
TAF AMD
KGSP 311039Z 3111/0106 22003KT P6SM VCSH BKN040
     FM311400 21004KT P6SM BKN090
     FM311700 20006KT P6SM BKN120
     FM311900 20007KT P6SM SCT120=



000
FTUS42 KGSP 311000 AAB
TAFCLT
TAF AMD
KCLT 311037Z 3111/0106 19007KT P6SM VCSH SCT090 OVC250
      TEMPO 3111/3113 6SM -SHRA BR SCT015 OVC040
     FM311300 19004KT P6SM BKN070
     FM311800 19006KT P6SM SCT200 PROB30 3120/3124 4SM TSRA
      BKN040CB=



000
FTUS42 KGSP 311000 AAB
TAFCLT
TAF AMD
KCLT 311037Z 3111/0106 19007KT P6SM VCSH SCT090 OVC250
      TEMPO 3111/3113 6SM -SHRA BR SCT015 OVC040
     FM311300 19004KT P6SM BKN070
     FM311800 19006KT P6SM SCT200 PROB30 3120/3124 4SM TSRA
      BKN040CB=



000
FTUS42 KGSP 310800 AAA
TAFAVL
TAF AMD
KAVL 310859Z 3109/0106 00000KT P6SM VCSH SCT050 BKN070
      TEMPO 3109/3113 4SM BR BKN017
     FM311300 17003KT P6SM BKN070
     FM311800 19007KT P6SM BKN045 PROB30 3120/0102 4SM TSRA BKN040CB
     FM010200 00000KT P6SM BKN060=



000
FTUS42 KGSP 310800 AAA
TAFAVL
TAF AMD
KAVL 310859Z 3109/0106 00000KT P6SM VCSH SCT050 BKN070
      TEMPO 3109/3113 4SM BR BKN017
     FM311300 17003KT P6SM BKN070
     FM311800 19007KT P6SM BKN045 PROB30 3120/0102 4SM TSRA BKN040CB
     FM010200 00000KT P6SM BKN060=



000
FTUS42 KGSP 310800 AAA
TAFGSP
TAF AMD
KGSP 310856Z 3109/0106 24005KT P6SM -SHRA BKN040 OVC090
      TEMPO 3109/3111 3SM BR
     FM311100 21005KT P6SM BKN017
     FM311700 20006KT P6SM BKN120
     FM311900 20007KT P6SM SCT120=



000
FTUS42 KGSP 310800 AAA
TAFCLT
TAF AMD
KCLT 310850Z 3109/0106 16007KT P6SM VCSH SCT090 OVC250
      TEMPO 3109/3112 VRB08G20KT 5SM -SHRA BR BKN040
     FM311300 19004KT P6SM BKN070
     FM311800 19006KT P6SM SCT200 PROB30 3120/3124 4SM TSRA
      BKN040CB=



000
FTUS42 KGSP 310800 AAA
TAFCLT
TAF AMD
KCLT 310850Z 3109/0106 16007KT P6SM VCSH SCT090 OVC250
      TEMPO 3109/3112 VRB08G20KT 5SM -SHRA BR BKN040
     FM311300 19004KT P6SM BKN070
     FM311800 19006KT P6SM SCT200 PROB30 3120/3124 4SM TSRA
      BKN040CB=



000
FTUS42 KGSP 310500
TAFCLT
TAF
KCLT 310532Z 3106/0106 17007KT P6SM SCT070 BKN250
      TEMPO 3111/3113 19003KT 5SM BR BKN060
     FM311300 19004KT P6SM BKN060
     FM311800 19006KT P6SM SCT200 PROB30 3120/3124 4SM TSRA
      BKN040CB=



000
FTUS42 KGSP 310500
TAFCLT
TAF
KCLT 310532Z 3106/0106 17007KT P6SM SCT070 BKN250
      TEMPO 3111/3113 19003KT 5SM BR BKN060
     FM311300 19004KT P6SM BKN060
     FM311800 19006KT P6SM SCT200 PROB30 3120/3124 4SM TSRA
      BKN040CB=



000
FTUS42 KGSP 310500
TAFAVL
TAF
KAVL 310532Z 3106/0106 00000KT P6SM VCTS BKN050CB
      TEMPO 3107/3109 3SM -TSRA OVC030CB
     FM310900 00000KT 2SM BR VCTS BKN017CB
     FM311300 17003KT P6SM BKN070
     FM311800 19007KT P6SM BKN045 PROB30 3120/0102 4SM TSRA BKN040CB
     FM010200 00000KT P6SM BKN060=



000
FTUS42 KGSP 310500
TAFAVL
TAF
KAVL 310532Z 3106/0106 00000KT P6SM VCTS BKN050CB
      TEMPO 3107/3109 3SM -TSRA OVC030CB
     FM310900 00000KT 2SM BR VCTS BKN017CB
     FM311300 17003KT P6SM BKN070
     FM311800 19007KT P6SM BKN045 PROB30 3120/0102 4SM TSRA BKN040CB
     FM010200 00000KT P6SM BKN060=



000
FTUS42 KGSP 310500
TAFGSP
TAF
KGSP 310532Z 3106/0106 00000KT P6SM BKN045
     FM310700 19003KT P6SM VCTS BKN035CB
      TEMPO 3107/3109 3SM -TSRA BKN009CB
     FM310900 19003KT 5SM BR BKN009
     FM311400 22004KT P6SM BKN017
     FM311700 21006KT P6SM BKN120
     FM311900 21007KT P6SM SCT120=



000
FTUS42 KGSP 302300
TAFAVL
TAF
KAVL 302338Z 3100/3124 17004KT P6SM BKN100
     FM310700 00000KT 3SM BR VCTS BKN060CB
     FM311400 00000KT 5SM BR BKN080
     FM311700 17004KT P6SM SCT250 PROB30 3118/3124 4SM TSRA
      BKN040CB=



000
FTUS42 KGSP 302300
TAFAVL
TAF
KAVL 302338Z 3100/3124 17004KT P6SM BKN100
     FM310700 00000KT 3SM BR VCTS BKN060CB
     FM311400 00000KT 5SM BR BKN080
     FM311700 17004KT P6SM SCT250 PROB30 3118/3124 4SM TSRA
      BKN040CB=



000
FTUS42 KGSP 302300
TAFCLT
TAF
KCLT 302338Z 3100/3124 15005KT P6SM SCT250
     FM311000 18003KT 5SM BR SCT030 BKN170
     FM311300 18004KT P6SM FEW030 BKN170
     FM311900 20006KT P6SM SCT250 PROB30 3120/3124 4SM TSRA
      BKN040CB=



000
FTUS42 KGSP 302300
TAFGSP
TAF
KGSP 302338Z 3100/3124 16003KT P6SM BKN250
     FM310800 18003KT P6SM VCSH BKN190
     FM311200 20003KT P6SM BKN170
     FM311900 21007KT P6SM SCT250=



000
FTUS42 KGSP 302300
TAFCLT
TAF
KCLT 302338Z 3100/3124 15005KT P6SM SCT250
     FM311000 18003KT 5SM BR SCT030 BKN170
     FM311300 18004KT P6SM FEW030 BKN170
     FM311900 20006KT P6SM SCT250 PROB30 3120/3124 4SM TSRA
      BKN040CB=



000
FTUS42 KGSP 302000 AAA
TAFCLT
TAF AMD
KCLT 302100Z 3021/3118 19005KT P6SM SCT050
     FM311100 18004KT 5SM BR BKN045
     FM311300 19004KT P6SM SCT045=



000
FTUS42 KGSP 302000 AAA
TAFCLT
TAF AMD
KCLT 302100Z 3021/3118 19005KT P6SM SCT050
     FM311100 18004KT 5SM BR BKN045
     FM311300 19004KT P6SM SCT045=



000
FTUS42 KGSP 301700 RRA
TAFAVL
TAF
KAVL 301742Z 3018/3118 16008KT P6SM SCT050
     FM302000 17008KT P6SM VCTS SCT020CB BKN050
     FM310200 00000KT P6SM VCSH BKN060
     FM310900 00000KT 3SM BR SCT050 BKN100
     FM311700 17003KT P6SM SCT050 PROB30 3117/3118 4SM -TSRA
      BKN040CB=



000
FTUS42 KGSP 301700 RRA
TAFAVL
TAF
KAVL 301742Z 3018/3118 16008KT P6SM SCT050
     FM302000 17008KT P6SM VCTS SCT020CB BKN050
     FM310200 00000KT P6SM VCSH BKN060
     FM310900 00000KT 3SM BR SCT050 BKN100
     FM311700 17003KT P6SM SCT050 PROB30 3117/3118 4SM -TSRA
      BKN040CB=



000
FTUS42 KGSP 301700 RRA
TAFGSP
TAF
KGSP 301742Z 3018/3118 17005KT P6SM SCT035
     FM302000 17005KT P6SM BKN050
     FM310900 20003KT 5SM BR BKN070
     FM311200 20003KT P6SM SCT070=



000
FTUS42 KGSP 301700 RRA
TAFCLT
TAF
KCLT 301742Z 3018/3118 16004KT P6SM BKN040
     FM302200 17003KT P6SM SCT040 BKN250
     FM311100 18004KT 5SM BR BKN045
     FM311300 19004KT P6SM SCT045=



000
FTUS42 KGSP 301700 RRA
TAFCLT
TAF
KCLT 301742Z 3018/3118 16004KT P6SM BKN040
     FM302200 17003KT P6SM SCT040 BKN250
     FM311100 18004KT 5SM BR BKN045
     FM311300 19004KT P6SM SCT045=



000
FTUS42 KGSP 301500 AAA
TAFCLT
TAF AMD
KCLT 301505Z 3015/3112 16006KT P6SM SCT050 SCT250
     FM310600 19003KT P6SM BKN045=



000
FTUS42 KGSP 301400 AAC
TAFAVL
TAF AMD
KAVL 301422Z 3014/3112 17005KT 3SM BR BKN003
     FM301500 17005KT P6SM BKN010
     FM301600 18006KT P6SM SCT035
     FM302200 18006KT P6SM VCTS BKN050CB
     FM310300 00000KT P6SM VCSH BKN040
     FM310800 00000KT 5SM BR BKN040=



000
FTUS42 KGSP 301200 AAA
TAFGSP
TAF AMD
KGSP 301238Z 3013/3112 07003KT P6SM FEW001
     FM301400 17006KT P6SM SCT050
     FM310600 00000KT P6SM BKN050=



000
FTUS42 KGSP 301200 AAB
TAFAVL
TAF AMD
KAVL 301232Z 3013/3112 00000KT 1/4SM FG VV002
      TEMPO 3013/3014 3SM BR SCT004
     FM301400 18005KT P6SM SCT045
     FM302200 18006KT P6SM VCTS BKN050CB
     FM310300 00000KT P6SM VCSH BKN040
     FM310800 00000KT 5SM BR BKN040=



000
FTUS42 KGSP 301200 AAA
TAFAVL
TAF AMD
KAVL 301213Z 3012/3112 00000KT 2SM BR SKC
     FM301300 17003KT 4SM BR FEW010
     FM301400 18005KT P6SM SCT045
     FM302200 18006KT P6SM VCTS BKN050CB
     FM310300 00000KT P6SM VCSH BKN040
     FM310800 00000KT 5SM BR BKN040=



000
FTUS42 KGSP 301200 AAA
TAFAVL
TAF AMD
KAVL 301213Z 3012/3112 00000KT 2SM BR SKC
     FM301300 17003KT 4SM BR FEW010
     FM301400 18005KT P6SM SCT045
     FM302200 18006KT P6SM VCTS BKN050CB
     FM310300 00000KT P6SM VCSH BKN040
     FM310800 00000KT 5SM BR BKN040=



000
FTUS42 KGSP 301100
TAFCLT
TAF
KCLT 301123Z 3012/3112 00000KT P6SM FEW035
     FM301400 16006KT P6SM FEW050 SCT250
     FM311000 19003KT P6SM BKN045=



000
FTUS42 KGSP 301100
TAFCLT
TAF
KCLT 301123Z 3012/3112 00000KT P6SM FEW035
     FM301400 16006KT P6SM FEW050 SCT250
     FM311000 19003KT P6SM BKN045=



000
FTUS42 KGSP 301100
TAFAVL
TAF
KAVL 301123Z 3012/3112 00000KT 1/4SM FG VV001
     FM301300 17003KT 4SM BR BKN010
     FM301400 18005KT P6SM SCT045
     FM302200 18006KT P6SM VCTS BKN050CB
     FM310300 00000KT P6SM VCSH BKN040
     FM310800 00000KT 5SM BR BKN040=



000
FTUS42 KGSP 301100
TAFGSP
TAF
KGSP 301123Z 3012/3112 02003KT 1/4SM FG VV001
      TEMPO 3012/3013 4SM BR SCT002
     FM301300 15006KT P6SM SCT020
     FM301400 17006KT P6SM SCT050
     FM310600 00000KT P6SM BKN050=



000
FTUS42 KGSP 301100
TAFAVL
TAF
KAVL 301123Z 3012/3112 00000KT 1/4SM FG VV001
     FM301300 17003KT 4SM BR BKN010
     FM301400 18005KT P6SM SCT045
     FM302200 18006KT P6SM VCTS BKN050CB
     FM310300 00000KT P6SM VCSH BKN040
     FM310800 00000KT 5SM BR BKN040=



000
FTUS42 KGSP 301100 AAA
TAFGSP
TAF AMD
KGSP 301102Z 3011/3106 00000KT P6SM FEW250
      TEMPO 3011/3012 1/2SM FG OVC002
     FM301600 17006KT P6SM SCT050
     FM302200 18005KT P6SM BKN050=



000
FTUS42 KGSP 300800 AAA
TAFCLT
TAF AMD
KCLT 300857Z 3009/3106 00000KT P6SM FEW035 FEW250
      TEMPO 3010/3013 5SM BR BKN025
     FM301300 00000KT P6SM SCT250
     FM301600 16004KT P6SM FEW050 SCT250=



000
FTUS42 KGSP 300800 AAA
TAFCLT
TAF AMD
KCLT 300857Z 3009/3106 00000KT P6SM FEW035 FEW250
      TEMPO 3010/3013 5SM BR BKN025
     FM301300 00000KT P6SM SCT250
     FM301600 16004KT P6SM FEW050 SCT250=



000
FTUS42 KGSP 300500 CCA
TAFAVL
TAF COR
KAVL 300558Z 3006/3106 21003KT P6SM SCT045
     FM300800 00000KT 3SM BR BKN017
      TEMPO 3008/3012 1/2SM FG BKN003
     FM301400 00000KT P6SM BKN250
     FM301800 18006KT P6SM BKN045
     FM310300 00000KT P6SM VCSH BKN045=



000
FTUS42 KGSP 300500 CCA
TAFAVL
TAF COR
KAVL 300558Z 3006/3106 21003KT P6SM SCT045
     FM300800 00000KT 3SM BR BKN017
      TEMPO 3008/3012 1/2SM FG BKN003
     FM301400 00000KT P6SM BKN250
     FM301800 18006KT P6SM BKN045
     FM310300 00000KT P6SM VCSH BKN045=



000
FTUS42 KGSP 300500
TAFCLT
TAF
KCLT 300532Z 3006/3106 13004KT P6SM FEW250
      TEMPO 3010/3013 5SM BR SCT017
     FM301300 00000KT P6SM SCT250
     FM301600 16004KT P6SM FEW050 SCT250=



000
FTUS42 KGSP 300500
TAFAVL
TAF
KAVL 300532Z 3006/3106 21003KT P6SM SCT045
     FM300700 00000KT 3SM BR BKN017
      TEMPO 3008/3012 1/2SM FG BKN003
     FM301400 00000KT P6SM BKN250
     FM301800 18006KT P6SM BKN045
     FM310300 00000KT P6SM VCSH BKN045=



000
FTUS42 KGSP 300500
TAFCLT
TAF
KCLT 300532Z 3006/3106 13004KT P6SM FEW250
      TEMPO 3010/3013 5SM BR SCT017
     FM301300 00000KT P6SM SCT250
     FM301600 16004KT P6SM FEW050 SCT250=



000
FTUS42 KGSP 300500
TAFGSP
TAF
KGSP 300532Z 3006/3106 00000KT P6SM FEW250
     FM301600 17006KT P6SM SCT050
     FM302200 18005KT P6SM BKN050=



000
FTUS42 KGSP 300500
TAFAVL
TAF
KAVL 300532Z 3006/3106 21003KT P6SM SCT045
     FM300700 00000KT 3SM BR BKN017
      TEMPO 3008/3012 1/2SM FG BKN003
     FM301400 00000KT P6SM BKN250
     FM301800 18006KT P6SM BKN045
     FM310300 00000KT P6SM VCSH BKN045=



    US Dept of Commerce
    National Oceanic and Atmospheric Administration
    National Weather Service
    1325 East West Highway
    Silver Spring, MD 20910
    Page Author: NWS Internet Services Team
Disclaimer
Information Quality
Credits
Glossary
Privacy Policy
Freedom of Information Act (FOIA)
About Us
Career Opportunities